createdAt,value
2023-01-23T00:01:40.998Z,7.20
2023-01-23T00:04:13.151Z,1.75
2023-01-23T00:06:43.492Z,9.27
2023-01-23T00:11:42.049Z,8.25
2023-01-23T00:14:10.856Z,3.15
2023-01-23T00:16:40.937Z,6.15
2023-01-23T00:19:11.726Z,1.65
2023-01-23T00:21:39.489Z,4.15
2023-01-23T00:24:07.392Z,4.47
2023-01-23T00:26:40.504Z,8.05
2023-01-23T00:29:10.552Z,6.63
2023-01-23T00:31:39.555Z,7.32
2023-01-23T00:34:11.352Z,2.65
2023-01-23T00:36:43.412Z,9.05
2023-01-23T00:39:17.843Z,1.83
2023-01-23T00:41:49.496Z,12.32
2023-01-23T00:44:17.527Z,2.20
2023-01-23T00:46:47.803Z,7.80
2023-01-23T00:51:45.797Z,5.53
2023-01-23T00:54:13.522Z,2.25
2023-01-23T00:56:41.186Z,5.72
2023-01-23T00:59:08.850Z,2.00
2023-01-23T01:01:36.222Z,4.18
2023-01-23T01:04:03.868Z,1.80
2023-01-23T01:06:31.569Z,4.05
2023-01-23T01:09:01.870Z,0.75
2023-01-23T01:13:57.626Z,1.17
2023-01-23T01:16:25.385Z,8.10
2023-01-23T01:18:52.829Z,3.45
2023-01-23T01:21:22.948Z,4.18
2023-01-23T01:23:53.953Z,2.40
2023-01-23T01:26:26.308Z,7.43
2023-01-23T01:28:53.874Z,3.53
2023-01-23T01:31:21.716Z,5.50
2023-01-23T01:33:51.826Z,3.55
2023-01-23T01:36:24.020Z,7.63
2023-01-23T01:38:54.102Z,2.33
2023-01-23T01:41:23.742Z,14.55
2023-01-23T01:43:53.644Z,3.15
2023-01-23T01:46:26.562Z,7.57
2023-01-23T01:49:11.924Z,2.60
2023-01-23T01:51:52.855Z,5.35
2023-01-23T01:54:28.820Z,3.70
2023-01-23T01:57:01.036Z,3.70
2023-01-23T01:59:30.415Z,2.35
2023-01-23T02:02:05.286Z,3.92
2023-01-23T02:04:38.993Z,4.30
2023-01-23T02:07:11.660Z,4.43
2023-01-23T02:09:39.409Z,3.35
2023-01-23T02:12:08.076Z,2.03
2023-01-23T02:14:35.726Z,6.18
2023-01-23T02:17:03.816Z,1.45
2023-01-23T02:19:59.425Z,3.95
2023-01-23T02:22:55.963Z,3.00
2023-01-23T02:25:44.364Z,2.95
2023-01-23T02:28:15.924Z,5.45
2023-01-23T02:30:48.196Z,4.85
2023-01-23T02:33:22.396Z,4.53
2023-01-23T02:35:50.777Z,2.60
2023-01-23T02:38:22.795Z,4.07
2023-01-23T02:40:53.672Z,1.63
2023-01-23T02:43:23.605Z,4.63
2023-01-23T02:45:55.018Z,2.33
2023-01-23T02:48:23.381Z,2.53
2023-01-23T02:50:54.165Z,2.65
2023-01-23T02:53:21.767Z,3.33
2023-01-23T02:55:49.177Z,2.00
2023-01-23T02:58:35.054Z,2.40
2023-01-23T03:01:02.809Z,2.80
2023-01-23T03:03:30.782Z,5.68
2023-01-23T03:06:03.526Z,1.80
2023-01-23T03:08:34.280Z,4.03
2023-01-23T03:11:03.328Z,1.00
2023-01-23T03:13:33.391Z,3.65
2023-01-23T03:16:01.275Z,2.35
2023-01-23T03:18:30.937Z,3.75
2023-01-23T03:21:06.540Z,4.78
2023-01-23T03:23:34.236Z,5.18
2023-01-23T03:26:01.586Z,2.53
2023-01-23T03:28:48.363Z,3.17
2023-01-23T03:31:19.061Z,1.95
2023-01-23T03:33:49.256Z,2.88
2023-01-23T03:36:16.895Z,5.10
2023-01-23T03:39:04.364Z,3.28
2023-01-23T03:41:31.912Z,6.57
2023-01-23T03:44:05.415Z,2.20
2023-01-23T03:46:33.059Z,7.90
2023-01-23T03:49:00.632Z,1.70
2023-01-23T03:51:30.798Z,10.60
2023-01-23T03:54:01.357Z,3.47
2023-01-23T03:56:29.117Z,6.60
2023-01-23T03:58:56.776Z,4.28
2023-01-23T04:01:24.436Z,7.53
2023-01-23T04:03:51.789Z,2.58
2023-01-23T04:06:19.865Z,13.15
2023-01-23T04:08:47.368Z,14.60
2023-01-23T04:11:15.599Z,13.88
2023-01-23T04:13:43.403Z,5.28
2023-01-23T04:16:10.962Z,17.23
2023-01-23T04:18:38.707Z,10.43
2023-01-23T04:21:06.586Z,11.50
2023-01-23T04:23:37.419Z,7.57
2023-01-23T04:26:05.142Z,8.52
2023-01-23T04:28:35.870Z,21.95
2023-01-23T04:31:06.395Z,15.10
2023-01-23T04:33:34.026Z,9.50
2023-01-23T04:36:08.676Z,11.32
2023-01-23T04:38:41.382Z,10.98
2023-01-23T04:41:09.039Z,14.00
2023-01-23T04:43:36.652Z,8.18
2023-01-23T04:46:06.186Z,17.35
2023-01-23T04:48:33.946Z,23.60
2023-01-23T04:51:01.518Z,14.43
2023-01-23T04:53:31.220Z,35.63
2023-01-23T04:56:04.875Z,18.35
2023-01-23T04:58:32.609Z,6.15
2023-01-23T05:01:07.169Z,8.85
2023-01-23T05:03:35.275Z,18.95
2023-01-23T05:06:02.797Z,13.20
2023-01-23T05:08:33.505Z,11.30
2023-01-23T05:11:01.815Z,17.77
2023-01-23T05:13:29.462Z,31.85
2023-01-23T05:15:59.516Z,45.28
2023-01-23T05:18:27.191Z,65.22
2023-01-23T05:20:54.949Z,53.53
2023-01-23T05:23:24.876Z,49.08
2023-01-23T05:25:54.724Z,71.07
2023-01-23T05:28:22.325Z,78.43
2023-01-23T05:30:49.678Z,70.95
2023-01-23T05:33:19.613Z,66.90
2023-01-23T05:35:47.108Z,61.50
2023-01-23T05:38:15.061Z,42.85
2023-01-23T05:40:45.751Z,48.78
2023-01-23T05:43:16.330Z,60.38
2023-01-23T05:45:49.697Z,32.60
2023-01-23T05:48:19.392Z,26.95
2023-01-23T05:50:46.821Z,52.63
2023-01-23T05:53:14.471Z,19.52
2023-01-23T05:55:42.317Z,38.67
2023-01-23T05:58:09.765Z,41.22
2023-01-23T06:00:37.121Z,12.23
2023-01-23T06:03:04.965Z,30.30
2023-01-23T06:05:34.647Z,38.65
2023-01-23T06:08:04.672Z,67.15
2023-01-23T06:10:36.402Z,83.13
2023-01-23T06:13:04.383Z,70.80
2023-01-23T06:15:34.620Z,48.83
2023-01-23T06:18:05.387Z,74.65
2023-01-23T06:20:37.482Z,70.70
2023-01-23T06:23:04.993Z,85.20
2023-01-23T06:25:32.440Z,76.65
2023-01-23T06:27:59.911Z,51.58
2023-01-23T06:30:27.371Z,73.97
2023-01-23T06:32:54.808Z,87.07
2023-01-23T06:35:22.900Z,105.90
2023-01-23T06:37:52.966Z,86.03
2023-01-23T06:40:23.763Z,125.35
2023-01-23T06:42:54.568Z,129.80
2023-01-23T06:45:24.832Z,113.63
2023-01-23T06:50:20.974Z,114.75
2023-01-23T06:52:48.657Z,122.38
2023-01-23T06:55:17.449Z,109.03
2023-01-23T06:57:44.908Z,127.85
2023-01-23T07:00:12.998Z,111.28
2023-01-23T07:02:45.444Z,98.70
2023-01-23T07:05:15.330Z,153.50
2023-01-23T07:07:45.690Z,110.78
2023-01-23T07:12:46.795Z,118.72
2023-01-23T07:15:14.418Z,113.93
2023-01-23T07:17:44.270Z,164.38
2023-01-23T07:20:15.806Z,143.93
2023-01-23T07:22:43.424Z,144.18
2023-01-23T07:25:11.197Z,127.63
2023-01-23T07:27:38.463Z,161.05
2023-01-23T07:30:06.014Z,118.05
2023-01-23T07:32:34.695Z,162.10
2023-01-23T07:35:02.572Z,205.23
2023-01-23T07:37:30.192Z,166.18
2023-01-23T07:40:00.074Z,129.52
2023-01-23T07:42:27.600Z,185.00
2023-01-23T07:44:57.723Z,171.23
2023-01-23T07:47:27.268Z,167.73
2023-01-23T07:49:54.581Z,179.25
2023-01-23T07:52:24.694Z,87.88
2023-01-23T07:54:55.358Z,164.15
2023-01-23T07:57:26.043Z,187.98
2023-01-23T07:59:53.807Z,197.98
2023-01-23T08:02:21.328Z,232.25
2023-01-23T08:05:04.320Z,187.50
2023-01-23T08:07:35.205Z,93.75
2023-01-23T08:10:03.343Z,64.20
2023-01-23T08:12:31.322Z,72.63
2023-01-23T08:14:58.844Z,55.35
2023-01-23T08:17:26.306Z,51.53
2023-01-23T08:19:53.624Z,65.18
2023-01-23T08:22:21.287Z,59.22
2023-01-23T08:24:48.748Z,104.40
2023-01-23T08:27:16.321Z,127.05
2023-01-23T08:29:43.931Z,140.10
2023-01-23T08:32:16.359Z,121.38
2023-01-23T08:34:46.615Z,177.30
2023-01-23T08:37:18.227Z,144.50
2023-01-23T08:39:45.774Z,151.10
2023-01-23T08:42:16.455Z,116.90
2023-01-23T08:44:43.959Z,191.07
2023-01-23T08:47:11.798Z,116.80
2023-01-23T08:49:39.531Z,137.02
2023-01-23T08:52:08.114Z,172.05
2023-01-23T08:54:38.535Z,187.80
2023-01-23T08:57:08.869Z,185.25
2023-01-23T08:59:36.269Z,177.60
2023-01-23T09:02:04.213Z,178.35
2023-01-23T09:04:35.238Z,182.82
2023-01-23T09:07:06.758Z,83.82
2023-01-23T09:09:37.937Z,154.73
2023-01-23T09:12:08.783Z,192.95
2023-01-23T09:14:38.452Z,176.40
2023-01-23T09:17:07.397Z,120.60
2023-01-23T09:19:35.377Z,78.63
2023-01-23T09:22:05.815Z,54.53
2023-01-23T09:24:37.981Z,56.22
2023-01-23T09:27:05.629Z,30.13
2023-01-23T09:29:33.251Z,54.53
2023-01-23T09:32:04.526Z,56.58
2023-01-23T09:34:32.232Z,72.63
2023-01-23T09:37:01.857Z,68.38
2023-01-23T09:39:29.587Z,81.25
2023-01-23T09:41:57.080Z,68.32
2023-01-23T09:44:43.246Z,106.85
2023-01-23T09:47:36.880Z,72.30
2023-01-23T09:50:13.900Z,99.88
2023-01-23T09:53:01.850Z,91.30
2023-01-23T09:55:39.232Z,55.15
2023-01-23T09:58:23.159Z,112.07
2023-01-23T10:00:59.806Z,65.05
2023-01-23T10:03:31.802Z,54.17
2023-01-23T10:06:25.838Z,92.65
2023-01-23T10:09:26.631Z,80.60
2023-01-23T10:12:07.081Z,42.53
2023-01-23T10:15:13.985Z,87.00
2023-01-23T10:17:59.430Z,83.60
2023-01-23T10:20:37.454Z,63.08
2023-01-23T10:23:32.748Z,80.22
2023-01-23T10:26:03.989Z,60.92
2023-01-23T10:28:39.606Z,108.10
2023-01-23T10:31:23.081Z,74.22
2023-01-23T10:34:09.260Z,65.38
2023-01-23T10:36:54.730Z,103.22
2023-01-23T10:39:31.213Z,93.93
2023-01-23T10:42:02.313Z,126.35
2023-01-23T10:44:31.067Z,117.68
2023-01-23T10:47:13.466Z,190.73
2023-01-23T10:49:48.965Z,235.38
2023-01-23T10:52:36.515Z,289.27
2023-01-23T10:55:21.005Z,231.65
2023-01-23T10:57:53.266Z,134.05
2023-01-23T11:00:37.545Z,101.35
2023-01-23T11:03:22.642Z,101.43
2023-01-23T11:05:56.730Z,59.95
2023-01-23T11:08:33.415Z,60.05
2023-01-23T11:11:17.562Z,39.33
2023-01-23T11:13:46.857Z,61.70
2023-01-23T11:16:23.001Z,66.13
2023-01-23T11:18:54.520Z,55.20
2023-01-23T11:21:28.260Z,67.22
2023-01-23T11:24:24.929Z,76.00
2023-01-23T11:27:02.257Z,78.32
2023-01-23T11:29:31.558Z,81.75
2023-01-23T11:32:09.842Z,65.85
2023-01-23T11:34:50.882Z,76.88
2023-01-23T11:37:23.364Z,114.00
2023-01-23T11:40:07.796Z,111.68
2023-01-23T11:42:36.845Z,117.72
2023-01-23T11:45:17.773Z,97.25
2023-01-23T11:47:59.101Z,170.30
2023-01-23T11:51:11.183Z,202.80
2023-01-23T11:53:44.548Z,186.98
2023-01-23T11:56:27.009Z,52.40
2023-01-23T11:59:28.735Z,136.05
2023-01-23T12:02:05.005Z,209.93
2023-01-23T12:04:46.231Z,175.95
2023-01-23T12:07:25.435Z,76.70
2023-01-23T12:10:02.570Z,73.80
2023-01-23T12:12:49.176Z,119.18
2023-01-23T12:15:28.242Z,120.80
2023-01-23T12:18:05.694Z,131.77
2023-01-23T12:20:47.446Z,164.90
2023-01-23T12:23:26.761Z,153.30
2023-01-23T12:26:19.919Z,129.00
2023-01-23T12:29:31.386Z,131.63
2023-01-23T12:32:33.534Z,187.15
2023-01-23T12:35:00.889Z,100.05
2023-01-23T12:37:41.941Z,160.75
2023-01-23T12:40:38.776Z,126.40
2023-01-23T12:43:25.628Z,129.00
2023-01-23T12:46:06.038Z,182.75
2023-01-23T12:48:52.506Z,272.23
2023-01-23T12:51:31.348Z,183.45
2023-01-23T12:54:13.398Z,64.13
2023-01-23T12:56:41.959Z,93.32
2023-01-23T12:59:26.867Z,92.38
2023-01-23T13:02:03.158Z,57.90
2023-01-23T13:04:42.961Z,75.25
2023-01-23T13:07:43.185Z,74.70
2023-01-23T13:10:57.091Z,112.88
2023-01-23T13:13:24.856Z,88.95
2023-01-23T13:16:13.907Z,42.25
2023-01-23T13:19:19.473Z,61.42
2023-01-23T13:22:29.351Z,53.08
2023-01-23T13:25:10.591Z,41.85
2023-01-23T13:27:50.442Z,69.97
2023-01-23T13:30:26.393Z,44.25
2023-01-23T13:32:58.543Z,57.20
2023-01-23T13:35:56.186Z,68.32
2023-01-23T13:38:26.441Z,47.42
2023-01-23T13:41:30.332Z,51.58
2023-01-23T13:44:18.078Z,57.85
2023-01-23T14:22:08.093Z,107.53
2023-01-23T14:24:47.916Z,138.50
2023-01-23T14:27:29.401Z,149.77
2023-01-23T14:30:02.666Z,104.47
2023-01-23T14:32:32.143Z,178.27
2023-01-23T14:35:06.587Z,85.72
2023-01-23T14:37:36.456Z,64.68
2023-01-23T14:40:11.930Z,125.72
2023-01-23T14:42:44.623Z,121.38
2023-01-23T14:45:17.700Z,106.55
2023-01-23T14:47:53.429Z,83.18
2023-01-23T14:50:26.472Z,51.70
2023-01-23T14:53:30.691Z,115.05
2023-01-23T14:56:00.958Z,75.68
2023-01-23T15:00:58.072Z,124.18
2023-01-23T15:03:45.004Z,153.52
2023-01-23T15:06:15.991Z,45.67
2023-01-23T15:08:44.269Z,63.00
2023-01-23T15:11:13.325Z,135.00
2023-01-23T15:13:50.572Z,54.38
2023-01-23T15:16:23.655Z,32.47
2023-01-23T15:19:12.028Z,24.98
2023-01-23T15:21:41.837Z,44.42
2023-01-23T15:24:15.846Z,30.15
2023-01-23T15:26:44.900Z,62.67
2023-01-23T15:29:12.775Z,46.15
2023-01-23T15:31:41.633Z,33.85
2023-01-23T15:34:22.234Z,36.92
2023-01-23T15:36:54.825Z,32.80
2023-01-23T15:39:30.734Z,41.42
2023-01-23T15:42:03.205Z,60.25
2023-01-23T15:44:32.495Z,148.20
2023-01-23T15:47:01.192Z,144.02
2023-01-23T15:49:29.497Z,238.43
2023-01-23T15:51:58.800Z,97.43
2023-01-23T15:54:37.764Z,104.47
2023-01-23T15:57:08.179Z,208.07
2023-01-23T15:59:38.867Z,45.90
2023-01-23T16:02:29.999Z,79.78
2023-01-23T16:05:01.274Z,169.25
2023-01-23T16:07:40.939Z,104.38
2023-01-23T16:10:22.852Z,71.28
2023-01-23T16:12:53.024Z,49.78
2023-01-23T16:15:23.647Z,38.30
2023-01-23T16:17:53.476Z,71.88
2023-01-23T16:20:25.480Z,93.03
2023-01-23T16:22:56.624Z,44.60
2023-01-23T16:25:43.565Z,104.80
2023-01-23T16:28:15.517Z,133.30
2023-01-23T16:30:45.722Z,119.28
2023-01-23T16:33:14.076Z,91.25
2023-01-23T16:35:41.944Z,93.07
2023-01-23T16:38:22.767Z,174.93
2023-01-23T16:40:53.296Z,67.20
2023-01-23T16:43:22.118Z,126.85
2023-01-23T16:45:53.713Z,214.02
2023-01-23T16:48:28.277Z,103.10
2023-01-23T16:51:02.358Z,176.38
2023-01-23T16:53:43.910Z,145.35
2023-01-23T16:56:38.559Z,154.30
2023-01-23T16:59:16.498Z,143.18
2023-01-23T17:01:46.840Z,82.75
2023-01-23T17:06:52.691Z,129.02
2023-01-23T17:09:20.578Z,139.25
2023-01-23T17:11:57.953Z,98.80
2023-01-23T17:14:27.612Z,86.97
2023-01-23T17:16:58.078Z,59.10
2023-01-23T17:19:32.561Z,35.08
2023-01-23T17:22:02.872Z,23.00
2023-01-23T17:26:59.228Z,34.17
2023-01-23T17:29:27.548Z,32.38
2023-01-23T17:31:55.708Z,18.65
2023-01-23T17:34:25.435Z,27.27
2023-01-23T17:36:54.454Z,10.68
2023-01-23T17:39:22.203Z,16.98
2023-01-23T17:41:51.455Z,9.48
2023-01-23T17:44:19.478Z,8.25
2023-01-23T17:46:47.825Z,22.17
2023-01-23T17:49:43.141Z,26.30
2023-01-23T17:52:12.531Z,112.60
2023-01-23T17:54:40.448Z,5.10
2023-01-23T17:57:08.222Z,28.70
2023-01-23T17:59:36.111Z,15.13
2023-01-23T18:02:03.941Z,6.68
2023-01-23T18:04:32.058Z,12.82
2023-01-23T18:06:59.891Z,5.68
2023-01-23T18:09:27.698Z,6.65
2023-01-23T18:11:55.918Z,9.65
2023-01-23T18:14:26.174Z,9.45
2023-01-23T18:16:54.352Z,6.85
2023-01-23T18:19:23.048Z,14.32
2023-01-23T18:21:55.811Z,15.00
2023-01-23T18:24:32.261Z,25.10
2023-01-23T18:30:16.082Z,10.55
2023-01-23T18:33:08.237Z,8.43
2023-01-23T18:35:54.285Z,54.20
2023-01-23T18:38:49.408Z,4.35
2023-01-23T18:44:19.124Z,15.15
2023-01-23T18:46:47.596Z,9.57
2023-01-23T18:49:31.791Z,17.08
2023-01-23T18:52:16.602Z,42.75
2023-01-23T18:54:50.294Z,57.17
2023-01-23T18:57:40.908Z,114.03
2023-01-23T19:00:34.971Z,77.68
2023-01-23T19:03:15.557Z,2.83
2023-01-23T19:05:43.934Z,11.25
2023-01-23T19:08:38.087Z,13.25
2023-01-23T19:11:22.540Z,4.28
2023-01-23T19:14:14.394Z,10.50
2023-01-23T19:16:47.930Z,14.30
2023-01-23T19:19:30.700Z,2.80
2023-01-23T19:21:59.366Z,2.75
2023-01-23T19:24:28.279Z,4.85
2023-01-23T19:26:56.256Z,2.08
2023-01-23T19:29:24.369Z,6.35
2023-01-23T19:32:05.107Z,3.60
2023-01-23T19:34:34.262Z,3.28
2023-01-23T19:37:02.453Z,4.00
2023-01-23T19:39:30.878Z,4.93
2023-01-23T19:41:59.626Z,4.50
2023-01-23T19:44:30.401Z,9.05
2023-01-23T19:46:58.344Z,4.45
2023-01-23T19:49:26.128Z,6.97
2023-01-23T19:51:54.426Z,3.83
2023-01-23T19:54:24.195Z,4.18
2023-01-23T19:56:52.331Z,3.47
2023-01-23T19:59:20.981Z,4.60
2023-01-23T20:01:51.312Z,6.82
2023-01-23T20:06:54.764Z,7.25
2023-01-23T20:09:22.940Z,3.85
2023-01-23T20:11:52.314Z,2.10
2023-01-23T20:14:22.275Z,2.33
2023-01-23T20:16:50.286Z,12.63
2023-01-23T20:19:19.558Z,3.65
2023-01-23T20:21:48.629Z,11.23
2023-01-23T20:24:17.123Z,4.40
2023-01-23T20:26:47.174Z,9.07
2023-01-23T20:29:14.948Z,3.78
2023-01-23T20:31:44.168Z,7.93
2023-01-23T20:34:12.087Z,2.42
2023-01-23T20:36:39.944Z,4.40
2023-01-23T20:39:07.977Z,3.55
2023-01-23T20:41:36.841Z,17.70
2023-01-23T20:44:05.978Z,4.13
2023-01-23T20:46:33.858Z,4.22
2023-01-23T20:49:02.268Z,2.50
2023-01-23T20:51:30.772Z,6.28
2023-01-23T20:53:59.432Z,3.00
2023-01-23T20:56:28.515Z,5.90
2023-01-23T20:59:16.116Z,4.20
2023-01-23T21:02:03.675Z,7.18
2023-01-23T21:04:34.063Z,3.05
2023-01-23T21:07:03.462Z,4.45
2023-01-23T21:09:31.470Z,3.45
2023-01-23T21:11:59.785Z,3.72
2023-01-23T21:14:28.791Z,2.50
2023-01-23T21:16:57.267Z,5.40
2023-01-23T21:19:25.236Z,4.80
2023-01-23T21:21:53.514Z,3.00
2023-01-23T21:24:22.362Z,4.90
2023-01-23T21:26:50.552Z,3.25
2023-01-23T21:29:18.525Z,4.13
2023-01-23T21:31:46.331Z,6.85
2023-01-23T21:34:15.290Z,6.13
2023-01-23T21:36:43.659Z,6.22
2023-01-23T21:39:14.392Z,2.85
2023-01-23T21:41:42.458Z,7.22
2023-01-23T21:44:13.812Z,2.50
2023-01-23T21:46:42.221Z,7.63
2023-01-23T21:49:10.413Z,3.45
2023-01-23T21:51:39.471Z,3.95
2023-01-23T21:54:07.171Z,5.97
2023-01-23T21:56:35.497Z,4.28
2023-01-23T21:59:03.236Z,3.13
2023-01-23T22:01:39.451Z,7.10
2023-01-23T22:04:13.125Z,2.70
2023-01-23T22:06:42.057Z,6.00
2023-01-23T22:09:10.470Z,1.60
2023-01-23T22:11:44.798Z,7.75
2023-01-23T22:14:14.003Z,3.15
2023-01-23T22:16:50.225Z,7.50
2023-01-23T22:19:24.201Z,2.78
2023-01-23T22:21:53.105Z,6.28
2023-01-23T22:24:21.048Z,4.60
2023-01-23T22:26:48.908Z,4.07
2023-01-23T22:29:16.472Z,5.80
2023-01-23T22:31:45.847Z,8.75
2023-01-23T22:34:13.654Z,2.58
2023-01-23T22:36:41.382Z,5.63
2023-01-23T22:39:09.325Z,2.95
2023-01-23T22:41:37.013Z,13.02
2023-01-23T22:44:04.924Z,2.58
2023-01-23T22:46:32.909Z,13.40
2023-01-23T22:49:00.816Z,3.45
2023-01-23T22:51:29.724Z,11.43
2023-01-23T22:53:58.394Z,5.50
2023-01-23T22:56:27.340Z,7.60
2023-01-23T22:58:55.343Z,4.15
2023-01-23T23:01:25.028Z,8.82
2023-01-23T23:03:52.919Z,1.63
2023-01-23T23:06:21.001Z,8.68
2023-01-23T23:08:49.184Z,8.77
2023-01-23T23:11:22.495Z,5.20
2023-01-23T23:13:50.317Z,5.03
2023-01-23T23:16:20.844Z,6.60
2023-01-23T23:18:50.759Z,5.13
2023-01-23T23:21:26.106Z,11.55
2023-01-23T23:23:59.632Z,19.88
2023-01-23T23:26:28.600Z,5.25
2023-01-23T23:28:56.511Z,8.55
2023-01-23T23:31:24.571Z,21.83
2023-01-23T23:33:52.608Z,23.27
2023-01-23T23:36:20.426Z,19.77
2023-01-23T23:38:49.194Z,9.32
2023-01-23T23:41:17.492Z,20.92
2023-01-23T23:43:45.420Z,4.05
2023-01-23T23:46:14.385Z,13.30
2023-01-23T23:48:43.713Z,30.02
2023-01-23T23:51:14.497Z,19.10
2023-01-23T23:53:45.251Z,18.70
2023-01-23T23:56:32.212Z,36.55
2023-01-23T23:58:59.994Z,24.90
